Weather at Sir Seewoosagur Ramgoolam International Airport

Public forecast

Using degrees Celsius for public forecast. Weather courtesy of forecast.io.

Current aviation weather report (METAR) for Sir Seewoosagur Ramgoolam International Airport

Retrieved 2020/12/02 18:00 UTC (20 minutes ago):

FIMP 021800Z 07008KT 9999 VCSH SCT014 25/24 Q1017

Aviation forecast (TAF) for Sir Seewoosagur Ramgoolam International Airport

Retrieved 2020/12/02 18:10 UTC (10 minutes ago):

TAF FIMP 021705Z 0218/0400 06010KT 9999 SCT018 PROB30 TEMPO 0220/0304 VRB02KT 7000 -SHRA BKN016